sensor_id;sensor_type;location;lat;lon;timestamp;temperature;humidity
1766;DHT22;880;52.452;8.656;2022-07-23T00:01:40;19.50;99.90
1766;DHT22;880;52.452;8.656;2022-07-23T00:04:07;19.40;99.90
1766;DHT22;880;52.452;8.656;2022-07-23T00:06:35;19.30;99.90
1766;DHT22;880;52.452;8.656;2022-07-23T00:09:02;19.30;99.90
1766;DHT22;880;52.452;8.656;2022-07-23T00:11:30;19.20;99.90
1766;DHT22;880;52.452;8.656;2022-07-23T00:13:57;19.30;99.90
1766;DHT22;880;52.452;8.656;2022-07-23T00:16:25;19.30;99.90
1766;DHT22;880;52.452;8.656;2022-07-23T00:18:52;19.30;99.90
1766;DHT22;880;52.452;8.656;2022-07-23T00:21:19;19.40;99.90
1766;DHT22;880;52.452;8.656;2022-07-23T00:23:46;19.40;99.90
1766;DHT22;880;52.452;8.656;2022-07-23T00:26:13;19.40;99.90
1766;DHT22;880;52.452;8.656;2022-07-23T00:28:40;19.40;99.90
1766;DHT22;880;52.452;8.656;2022-07-23T00:31:07;19.40;99.90
1766;DHT22;880;52.452;8.656;2022-07-23T00:33:34;19.40;99.90
1766;DHT22;880;52.452;8.656;2022-07-23T00:36:01;19.40;99.90
1766;DHT22;880;52.452;8.656;2022-07-23T00:38:29;19.40;99.90
1766;DHT22;880;52.452;8.656;2022-07-23T00:40:56;19.40;99.90
1766;DHT22;880;52.452;8.656;2022-07-23T00:43:23;19.30;99.90
1766;DHT22;880;52.452;8.656;2022-07-23T00:45:50;19.30;99.90
1766;DHT22;880;52.452;8.656;2022-07-23T00:48:17;19.40;99.90
1766;DHT22;880;52.452;8.656;2022-07-23T00:50:44;19.30;99.90
1766;DHT22;880;52.452;8.656;2022-07-23T00:53:12;19.10;99.90
1766;DHT22;880;52.452;8.656;2022-07-23T00:55:39;19.10;99.90
1766;DHT22;880;52.452;8.656;2022-07-23T00:58:06;19.10;99.90
1766;DHT22;880;52.452;8.656;2022-07-23T01:00:33;19.20;99.90
1766;DHT22;880;52.452;8.656;2022-07-23T01:03:00;19.20;99.90
1766;DHT22;880;52.452;8.656;2022-07-23T01:05:27;19.30;99.90
1766;DHT22;880;52.452;8.656;2022-07-23T01:07:54;19.20;99.90
1766;DHT22;880;52.452;8.656;2022-07-23T01:10:23;19.10;99.90
1766;DHT22;880;52.452;8.656;2022-07-23T01:13:08;19.00;99.90
1766;DHT22;880;52.452;8.656;2022-07-23T01:15:37;18.90;99.90
1766;DHT22;880;52.452;8.656;2022-07-23T01:18:06;18.70;99.90
1766;DHT22;880;52.452;8.656;2022-07-23T01:20:41;18.70;99.90
1766;DHT22;880;52.452;8.656;2022-07-23T01:23:09;18.70;99.90
1766;DHT22;880;52.452;8.656;2022-07-23T01:25:48;18.80;99.90
1766;DHT22;880;52.452;8.656;2022-07-23T01:28:16;18.80;99.90
1766;DHT22;880;52.452;8.656;2022-07-23T01:30:43;18.80;99.90
1766;DHT22;880;52.452;8.656;2022-07-23T01:33:11;18.90;99.90
1766;DHT22;880;52.452;8.656;2022-07-23T01:35:38;18.90;99.90
1766;DHT22;880;52.452;8.656;2022-07-23T01:38:06;18.70;99.90
1766;DHT22;880;52.452;8.656;2022-07-23T01:40:34;18.40;99.90
1766;DHT22;880;52.452;8.656;2022-07-23T01:43:02;18.10;99.90
1766;DHT22;880;52.452;8.656;2022-07-23T01:45:32;17.90;99.90
1766;DHT22;880;52.452;8.656;2022-07-23T01:47:59;18.00;99.90
1766;DHT22;880;52.452;8.656;2022-07-23T01:50:27;18.20;99.90
1766;DHT22;880;52.452;8.656;2022-07-23T01:53:07;18.30;99.90
1766;DHT22;880;52.452;8.656;2022-07-23T01:55:36;18.20;99.90
1766;DHT22;880;52.452;8.656;2022-07-23T01:58:03;18.20;99.90
1766;DHT22;880;52.452;8.656;2022-07-23T02:00:32;18.40;99.90
1766;DHT22;880;52.452;8.656;2022-07-23T02:02:59;18.40;99.90
1766;DHT22;880;52.452;8.656;2022-07-23T02:05:27;18.30;99.90
1766;DHT22;880;52.452;8.656;2022-07-23T02:07:59;18.20;99.90
1766;DHT22;880;52.452;8.656;2022-07-23T02:10:27;18.20;99.90
1766;DHT22;880;52.452;8.656;2022-07-23T02:12:54;18.30;99.90
1766;DHT22;880;52.452;8.656;2022-07-23T02:15:21;18.40;99.90
1766;DHT22;880;52.452;8.656;2022-07-23T02:17:49;18.30;99.90
1766;DHT22;880;52.452;8.656;2022-07-23T02:20:16;18.30;99.90
1766;DHT22;880;52.452;8.656;2022-07-23T02:22:43;18.50;99.90
1766;DHT22;880;52.452;8.656;2022-07-23T02:25:10;18.60;99.90
1766;DHT22;880;52.452;8.656;2022-07-23T02:27:37;18.60;99.90
1766;DHT22;880;52.452;8.656;2022-07-23T02:30:06;18.60;99.90
1766;DHT22;880;52.452;8.656;2022-07-23T02:32:34;18.50;99.90
1766;DHT22;880;52.452;8.656;2022-07-23T02:35:02;18.50;99.90
1766;DHT22;880;52.452;8.656;2022-07-23T02:37:31;18.50;99.90
1766;DHT22;880;52.452;8.656;2022-07-23T02:39:58;18.60;99.90
1766;DHT22;880;52.452;8.656;2022-07-23T02:42:25;18.70;99.90
1766;DHT22;880;52.452;8.656;2022-07-23T02:44:52;18.80;99.90
1766;DHT22;880;52.452;8.656;2022-07-23T02:47:19;18.90;99.90
1766;DHT22;880;52.452;8.656;2022-07-23T02:49:46;18.90;99.90
1766;DHT22;880;52.452;8.656;2022-07-23T02:52:13;18.90;99.90
1766;DHT22;880;52.452;8.656;2022-07-23T02:54:41;18.90;99.90
1766;DHT22;880;52.452;8.656;2022-07-23T02:57:11;19.00;99.90
1766;DHT22;880;52.452;8.656;2022-07-23T02:59:38;19.00;99.90
1766;DHT22;880;52.452;8.656;2022-07-23T03:02:05;19.00;99.90
1766;DHT22;880;52.452;8.656;2022-07-23T03:04:32;19.00;99.90
1766;DHT22;880;52.452;8.656;2022-07-23T03:06:59;19.00;99.90
1766;DHT22;880;52.452;8.656;2022-07-23T03:09:26;19.00;99.90
1766;DHT22;880;52.452;8.656;2022-07-23T03:11:53;18.80;99.90
1766;DHT22;880;52.452;8.656;2022-07-23T03:14:20;18.80;99.90
1766;DHT22;880;52.452;8.656;2022-07-23T03:16:47;18.50;99.90
1766;DHT22;880;52.452;8.656;2022-07-23T03:19:16;18.20;99.90
1766;DHT22;880;52.452;8.656;2022-07-23T03:21:43;17.80;99.90
1766;DHT22;880;52.452;8.656;2022-07-23T03:24:11;17.60;99.90
1766;DHT22;880;52.452;8.656;2022-07-23T03:26:38;17.60;99.90
1766;DHT22;880;52.452;8.656;2022-07-23T03:29:06;17.70;99.90
1766;DHT22;880;52.452;8.656;2022-07-23T03:31:33;17.70;99.90
1766;DHT22;880;52.452;8.656;2022-07-23T03:34:01;17.90;99.90
1766;DHT22;880;52.452;8.656;2022-07-23T03:36:29;18.00;99.90
1766;DHT22;880;52.452;8.656;2022-07-23T03:38:56;18.10;99.90
1766;DHT22;880;52.452;8.656;2022-07-23T03:41:27;18.30;99.90
1766;DHT22;880;52.452;8.656;2022-07-23T03:43:54;18.40;99.90
1766;DHT22;880;52.452;8.656;2022-07-23T03:46:21;18.30;99.90
1766;DHT22;880;52.452;8.656;2022-07-23T03:48:48;18.30;99.90
1766;DHT22;880;52.452;8.656;2022-07-23T03:51:18;18.30;99.90
1766;DHT22;880;52.452;8.656;2022-07-23T03:53:45;18.40;99.90
1766;DHT22;880;52.452;8.656;2022-07-23T03:56:12;18.40;99.90
1766;DHT22;880;52.452;8.656;2022-07-23T03:58:39;18.40;99.90
1766;DHT22;880;52.452;8.656;2022-07-23T04:01:06;18.40;99.90
1766;DHT22;880;52.452;8.656;2022-07-23T04:03:33;18.40;99.90
1766;DHT22;880;52.452;8.656;2022-07-23T04:06:00;18.40;99.90
1766;DHT22;880;52.452;8.656;2022-07-23T04:08:29;18.00;99.90
1766;DHT22;880;52.452;8.656;2022-07-23T04:10:58;17.50;99.90
1766;DHT22;880;52.452;8.656;2022-07-23T04:13:25;17.00;99.90
1766;DHT22;880;52.452;8.656;2022-07-23T04:15:53;16.80;99.90
1766;DHT22;880;52.452;8.656;2022-07-23T04:18:20;16.60;99.90
1766;DHT22;880;52.452;8.656;2022-07-23T04:20:59;16.40;99.90
1766;DHT22;880;52.452;8.656;2022-07-23T04:23:26;16.20;99.90
1766;DHT22;880;52.452;8.656;2022-07-23T04:25:53;16.00;99.90
1766;DHT22;880;52.452;8.656;2022-07-23T04:28:20;15.90;99.90
1766;DHT22;880;52.452;8.656;2022-07-23T04:30:47;15.80;99.90
1766;DHT22;880;52.452;8.656;2022-07-23T04:33:16;15.80;99.90
1766;DHT22;880;52.452;8.656;2022-07-23T04:35:45;15.70;99.90
1766;DHT22;880;52.452;8.656;2022-07-23T04:38:18;15.60;99.90
1766;DHT22;880;52.452;8.656;2022-07-23T04:40:46;15.70;99.90
1766;DHT22;880;52.452;8.656;2022-07-23T04:43:13;15.70;99.90
1766;DHT22;880;52.452;8.656;2022-07-23T04:45:45;15.60;99.90
1766;DHT22;880;52.452;8.656;2022-07-23T04:48:12;15.70;99.90
1766;DHT22;880;52.452;8.656;2022-07-23T04:50:39;15.70;99.90
1766;DHT22;880;52.452;8.656;2022-07-23T04:53:14;15.70;99.90
1766;DHT22;880;52.452;8.656;2022-07-23T04:55:42;15.80;99.90
1766;DHT22;880;52.452;8.656;2022-07-23T04:58:09;15.80;99.90
1766;DHT22;880;52.452;8.656;2022-07-23T05:00:36;16.00;99.90
1766;DHT22;880;52.452;8.656;2022-07-23T05:03:03;16.10;99.90
1766;DHT22;880;52.452;8.656;2022-07-23T05:05:31;16.00;99.90
1766;DHT22;880;52.452;8.656;2022-07-23T05:08:06;15.90;99.90
1766;DHT22;880;52.452;8.656;2022-07-23T05:10:35;15.80;99.90
1766;DHT22;880;52.452;8.656;2022-07-23T05:13:02;15.80;99.90
1766;DHT22;880;52.452;8.656;2022-07-23T05:15:29;15.70;99.90
1766;DHT22;880;52.452;8.656;2022-07-23T05:17:57;15.70;99.90
1766;DHT22;880;52.452;8.656;2022-07-23T05:20:25;15.70;99.90
1766;DHT22;880;52.452;8.656;2022-07-23T05:22:52;15.80;99.90
1766;DHT22;880;52.452;8.656;2022-07-23T05:25:19;16.00;99.90
1766;DHT22;880;52.452;8.656;2022-07-23T05:27:46;16.00;99.90
1766;DHT22;880;52.452;8.656;2022-07-23T05:30:13;16.10;99.90
1766;DHT22;880;52.452;8.656;2022-07-23T05:32:43;16.10;99.90
1766;DHT22;880;52.452;8.656;2022-07-23T05:35:14;16.10;99.90
1766;DHT22;880;52.452;8.656;2022-07-23T05:37:47;16.20;99.90
1766;DHT22;880;52.452;8.656;2022-07-23T05:40:15;16.50;99.90
1766;DHT22;880;52.452;8.656;2022-07-23T05:42:42;16.70;99.90
1766;DHT22;880;52.452;8.656;2022-07-23T05:45:10;17.00;99.90
1766;DHT22;880;52.452;8.656;2022-07-23T05:47:46;17.10;99.90
1766;DHT22;880;52.452;8.656;2022-07-23T05:50:21;17.10;99.90
1766;DHT22;880;52.452;8.656;2022-07-23T05:52:53;16.90;99.90
1766;DHT22;880;52.452;8.656;2022-07-23T05:55:52;16.90;99.90
1766;DHT22;880;52.452;8.656;2022-07-23T05:58:19;16.90;99.90
1766;DHT22;880;52.452;8.656;2022-07-23T06:00:47;16.90;99.90
1766;DHT22;880;52.452;8.656;2022-07-23T06:03:14;16.90;99.90
1766;DHT22;880;52.452;8.656;2022-07-23T06:05:41;17.10;99.90
1766;DHT22;880;52.452;8.656;2022-07-23T06:08:09;17.20;99.90
1766;DHT22;880;52.452;8.656;2022-07-23T06:10:39;17.40;99.90
1766;DHT22;880;52.452;8.656;2022-07-23T06:13:07;17.80;99.90
1766;DHT22;880;52.452;8.656;2022-07-23T06:15:35;17.80;99.90
1766;DHT22;880;52.452;8.656;2022-07-23T06:18:02;17.80;99.90
1766;DHT22;880;52.452;8.656;2022-07-23T06:20:29;17.80;99.90
1766;DHT22;880;52.452;8.656;2022-07-23T06:22:57;17.80;99.90
1766;DHT22;880;52.452;8.656;2022-07-23T06:25:24;17.90;99.90
1766;DHT22;880;52.452;8.656;2022-07-23T06:27:51;18.10;99.90
1766;DHT22;880;52.452;8.656;2022-07-23T06:30:18;18.30;99.90
1766;DHT22;880;52.452;8.656;2022-07-23T06:32:47;18.40;99.90
1766;DHT22;880;52.452;8.656;2022-07-23T06:35:16;18.50;99.90
1766;DHT22;880;52.452;8.656;2022-07-23T06:37:46;18.60;99.90
1766;DHT22;880;52.452;8.656;2022-07-23T06:40:14;18.40;99.90
1766;DHT22;880;52.452;8.656;2022-07-23T06:42:41;18.60;99.90
1766;DHT22;880;52.452;8.656;2022-07-23T06:45:15;18.80;99.90
1766;DHT22;880;52.452;8.656;2022-07-23T06:47:42;18.90;99.90
1766;DHT22;880;52.452;8.656;2022-07-23T06:50:09;18.80;99.90
1766;DHT22;880;52.452;8.656;2022-07-23T06:52:37;18.50;99.90
1766;DHT22;880;52.452;8.656;2022-07-23T06:55:09;18.20;99.90
1766;DHT22;880;52.452;8.656;2022-07-23T06:57:37;18.10;99.90
1766;DHT22;880;52.452;8.656;2022-07-23T07:00:06;18.40;99.90
1766;DHT22;880;52.452;8.656;2022-07-23T07:02:33;18.50;99.90
1766;DHT22;880;52.452;8.656;2022-07-23T07:05:02;18.60;99.90
1766;DHT22;880;52.452;8.656;2022-07-23T07:07:33;18.60;99.90
1766;DHT22;880;52.452;8.656;2022-07-23T07:10:02;18.50;99.90
1766;DHT22;880;52.452;8.656;2022-07-23T07:12:29;18.50;99.90
1766;DHT22;880;52.452;8.656;2022-07-23T07:14:56;18.50;99.90
1766;DHT22;880;52.452;8.656;2022-07-23T07:17:24;18.40;99.90
1766;DHT22;880;52.452;8.656;2022-07-23T07:19:51;18.50;99.90
1766;DHT22;880;52.452;8.656;2022-07-23T07:22:18;18.80;99.90
1766;DHT22;880;52.452;8.656;2022-07-23T07:24:45;18.90;99.90
1766;DHT22;880;52.452;8.656;2022-07-23T07:27:12;19.00;99.90
1766;DHT22;880;52.452;8.656;2022-07-23T07:29:39;19.40;99.90
1766;DHT22;880;52.452;8.656;2022-07-23T07:32:06;19.90;99.90
1766;DHT22;880;52.452;8.656;2022-07-23T07:34:33;20.20;99.90
1766;DHT22;880;52.452;8.656;2022-07-23T07:37:00;20.40;99.90
1766;DHT22;880;52.452;8.656;2022-07-23T07:39:27;20.70;99.90
1766;DHT22;880;52.452;8.656;2022-07-23T07:41:54;20.80;99.90
1766;DHT22;880;52.452;8.656;2022-07-23T07:44:21;21.00;99.90
1766;DHT22;880;52.452;8.656;2022-07-23T07:46:48;21.10;99.90
1766;DHT22;880;52.452;8.656;2022-07-23T07:49:15;21.00;99.90
1766;DHT22;880;52.452;8.656;2022-07-23T07:51:48;20.80;99.90
1766;DHT22;880;52.452;8.656;2022-07-23T07:54:15;20.90;99.90
1766;DHT22;880;52.452;8.656;2022-07-23T07:56:42;21.10;99.90
1766;DHT22;880;52.452;8.656;2022-07-23T07:59:09;20.90;99.90
1766;DHT22;880;52.452;8.656;2022-07-23T08:01:37;20.70;99.90
1766;DHT22;880;52.452;8.656;2022-07-23T08:04:04;20.80;99.90
1766;DHT22;880;52.452;8.656;2022-07-23T08:06:32;20.90;99.90
1766;DHT22;880;52.452;8.656;2022-07-23T08:08:59;21.00;99.90
1766;DHT22;880;52.452;8.656;2022-07-23T08:11:27;21.10;99.90
1766;DHT22;880;52.452;8.656;2022-07-23T08:13:53;21.10;99.90
1766;DHT22;880;52.452;8.656;2022-07-23T08:16:21;20.80;99.90
1766;DHT22;880;52.452;8.656;2022-07-23T08:18:48;20.50;99.90
1766;DHT22;880;52.452;8.656;2022-07-23T08:21:15;20.60;99.90
1766;DHT22;880;52.452;8.656;2022-07-23T08:23:42;20.50;99.90
1766;DHT22;880;52.452;8.656;2022-07-23T08:26:09;20.50;99.90
1766;DHT22;880;52.452;8.656;2022-07-23T08:28:36;20.40;99.90
1766;DHT22;880;52.452;8.656;2022-07-23T08:31:03;20.40;99.90
1766;DHT22;880;52.452;8.656;2022-07-23T08:33:32;20.40;99.90
1766;DHT22;880;52.452;8.656;2022-07-23T08:36:02;20.50;99.90
1766;DHT22;880;52.452;8.656;2022-07-23T08:38:30;20.80;99.90
1766;DHT22;880;52.452;8.656;2022-07-23T08:40:58;21.00;99.90
1766;DHT22;880;52.452;8.656;2022-07-23T08:43:27;21.10;99.90
1766;DHT22;880;52.452;8.656;2022-07-23T08:45:59;21.20;99.90
1766;DHT22;880;52.452;8.656;2022-07-23T08:48:32;21.00;99.90
1766;DHT22;880;52.452;8.656;2022-07-23T08:51:02;20.60;99.90
1766;DHT22;880;52.452;8.656;2022-07-23T08:53:32;20.40;99.90
1766;DHT22;880;52.452;8.656;2022-07-23T08:56:02;20.20;99.90
1766;DHT22;880;52.452;8.656;2022-07-23T08:58:30;20.30;99.90
1766;DHT22;880;52.452;8.656;2022-07-23T09:00:58;20.70;99.90
1766;DHT22;880;52.452;8.656;2022-07-23T09:03:28;21.10;99.90
1766;DHT22;880;52.452;8.656;2022-07-23T09:05:57;21.40;99.90
1766;DHT22;880;52.452;8.656;2022-07-23T09:08:39;21.60;99.90
1766;DHT22;880;52.452;8.656;2022-07-23T09:11:13;21.90;99.90
1766;DHT22;880;52.452;8.656;2022-07-23T09:13:54;21.70;99.90
1766;DHT22;880;52.452;8.656;2022-07-23T09:16:29;21.50;99.90
1766;DHT22;880;52.452;8.656;2022-07-23T09:18:59;21.40;99.90
1766;DHT22;880;52.452;8.656;2022-07-23T09:21:31;21.30;99.90
1766;DHT22;880;52.452;8.656;2022-07-23T09:24:06;20.90;99.90
1766;DHT22;880;52.452;8.656;2022-07-23T09:29:06;21.50;99.90
1766;DHT22;880;52.452;8.656;2022-07-23T09:31:54;21.80;99.90
1766;DHT22;880;52.452;8.656;2022-07-23T09:34:27;21.80;99.90
1766;DHT22;880;52.452;8.656;2022-07-23T09:36:57;22.00;99.90
1766;DHT22;880;52.452;8.656;2022-07-23T09:39:31;22.20;99.90
1766;DHT22;880;52.452;8.656;2022-07-23T09:44:46;22.70;99.90
1766;DHT22;880;52.452;8.656;2022-07-23T09:47:14;22.60;99.90
1766;DHT22;880;52.452;8.656;2022-07-23T09:50:07;22.40;99.90
1766;DHT22;880;52.452;8.656;2022-07-23T09:52:43;22.20;99.90
1766;DHT22;880;52.452;8.656;2022-07-23T09:55:13;22.10;99.90
1766;DHT22;880;52.452;8.656;2022-07-23T09:57:42;22.20;99.90
1766;DHT22;880;52.452;8.656;2022-07-23T10:00:12;22.20;99.90
1766;DHT22;880;52.452;8.656;2022-07-23T10:02:40;22.00;99.90
1766;DHT22;880;52.452;8.656;2022-07-23T10:05:26;21.90;99.90
1766;DHT22;880;52.452;8.656;2022-07-23T10:08:13;21.70;99.90
1766;DHT22;880;52.452;8.656;2022-07-23T10:11:00;22.10;99.90
1766;DHT22;880;52.452;8.656;2022-07-23T10:14:03;22.30;99.90
1766;DHT22;880;52.452;8.656;2022-07-23T10:16:53;22.30;99.60
1766;DHT22;880;52.452;8.656;2022-07-23T10:19:20;22.20;99.90
1766;DHT22;880;52.452;8.656;2022-07-23T10:21:53;22.30;99.90
1766;DHT22;880;52.452;8.656;2022-07-23T10:34:58;22.80;97.00
1766;DHT22;880;52.452;8.656;2022-07-23T10:37:47;22.50;98.90
1766;DHT22;880;52.452;8.656;2022-07-23T10:40:25;22.80;98.40
1766;DHT22;880;52.452;8.656;2022-07-23T10:42:52;23.00;98.10
1766;DHT22;880;52.452;8.656;2022-07-23T10:45:34;23.00;98.90
1766;DHT22;880;52.452;8.656;2022-07-23T10:51:10;23.40;97.30
1766;DHT22;880;52.452;8.656;2022-07-23T10:54:00;23.20;96.80
1766;DHT22;880;52.452;8.656;2022-07-23T10:56:48;23.20;96.40
1766;DHT22;880;52.452;8.656;2022-07-23T10:59:21;23.00;96.50
1766;DHT22;880;52.452;8.656;2022-07-23T11:01:49;23.00;96.50
1766;DHT22;880;52.452;8.656;2022-07-23T11:04:18;23.20;96.70
1766;DHT22;880;52.452;8.656;2022-07-23T11:09:29;23.80;96.20
1766;DHT22;880;52.452;8.656;2022-07-23T11:15:13;24.10;95.30
1766;DHT22;880;52.452;8.656;2022-07-23T11:20:22;24.30;94.70
1766;DHT22;880;52.452;8.656;2022-07-23T11:22:52;24.50;94.40
1766;DHT22;880;52.452;8.656;2022-07-23T11:27:51;25.00;93.40
1766;DHT22;880;52.452;8.656;2022-07-23T11:35:44;25.10;92.70
1766;DHT22;880;52.452;8.656;2022-07-23T11:38:21;25.30;92.80
1766;DHT22;880;52.452;8.656;2022-07-23T11:40:54;25.20;91.40
1766;DHT22;880;52.452;8.656;2022-07-23T11:43:24;25.20;91.80
1766;DHT22;880;52.452;8.656;2022-07-23T11:45:54;25.30;92.60
1766;DHT22;880;52.452;8.656;2022-07-23T11:48:26;25.40;91.40
1766;DHT22;880;52.452;8.656;2022-07-23T11:50:56;25.20;90.70
1766;DHT22;880;52.452;8.656;2022-07-23T11:53:29;24.90;90.70
1766;DHT22;880;52.452;8.656;2022-07-23T11:56:08;25.00;91.20
1766;DHT22;880;52.452;8.656;2022-07-23T11:58:38;24.70;89.80
1766;DHT22;880;52.452;8.656;2022-07-23T12:01:06;24.50;90.00
1766;DHT22;880;52.452;8.656;2022-07-23T12:03:51;24.60;90.60
1766;DHT22;880;52.452;8.656;2022-07-23T12:06:19;24.80;90.30
1766;DHT22;880;52.452;8.656;2022-07-23T12:08:46;24.60;91.30
1766;DHT22;880;52.452;8.656;2022-07-23T12:11:13;24.80;92.00
1766;DHT22;880;52.452;8.656;2022-07-23T12:13:40;25.10;92.10
1766;DHT22;880;52.452;8.656;2022-07-23T12:16:08;25.30;90.20
1766;DHT22;880;52.452;8.656;2022-07-23T12:18:35;25.20;90.40
1766;DHT22;880;52.452;8.656;2022-07-23T12:21:04;25.30;90.60
1766;DHT22;880;52.452;8.656;2022-07-23T12:23:33;25.40;89.40
1766;DHT22;880;52.452;8.656;2022-07-23T12:26:02;25.40;89.40
1766;DHT22;880;52.452;8.656;2022-07-23T12:28:31;25.40;89.40
1766;DHT22;880;52.452;8.656;2022-07-23T12:30:59;25.30;89.80
1766;DHT22;880;52.452;8.656;2022-07-23T12:33:32;25.10;90.80
1766;DHT22;880;52.452;8.656;2022-07-23T12:36:03;25.10;91.40
1766;DHT22;880;52.452;8.656;2022-07-23T12:38:43;25.20;90.30
1766;DHT22;880;52.452;8.656;2022-07-23T12:41:14;24.90;90.10
1766;DHT22;880;52.452;8.656;2022-07-23T12:43:43;24.70;89.50
1766;DHT22;880;52.452;8.656;2022-07-23T12:46:19;24.50;90.20
1766;DHT22;880;52.452;8.656;2022-07-23T12:51:24;24.50;90.50
1766;DHT22;880;52.452;8.656;2022-07-23T12:53:54;24.40;90.40
1766;DHT22;880;52.452;8.656;2022-07-23T12:56:34;24.60;91.90
1766;DHT22;880;52.452;8.656;2022-07-23T13:01:41;24.80;91.30
1766;DHT22;880;52.452;8.656;2022-07-23T13:04:21;25.00;90.80
1766;DHT22;880;52.452;8.656;2022-07-23T13:06:53;25.20;90.20
1766;DHT22;880;52.452;8.656;2022-07-23T13:09:32;25.20;91.60
1766;DHT22;880;52.452;8.656;2022-07-23T13:12:20;25.50;90.10
1766;DHT22;880;52.452;8.656;2022-07-23T13:14:47;25.40;89.40
1766;DHT22;880;52.452;8.656;2022-07-23T13:17:14;25.30;90.10
1766;DHT22;880;52.452;8.656;2022-07-23T13:19:41;25.40;88.90
1766;DHT22;880;52.452;8.656;2022-07-23T13:22:09;25.60;87.90
1766;DHT22;880;52.452;8.656;2022-07-23T13:24:36;25.40;88.70
1766;DHT22;880;52.452;8.656;2022-07-23T13:27:05;25.40;89.80
1766;DHT22;880;52.452;8.656;2022-07-23T13:29:37;25.60;89.40
1766;DHT22;880;52.452;8.656;2022-07-23T13:32:04;25.70;90.60
1766;DHT22;880;52.452;8.656;2022-07-23T13:34:39;25.60;89.30
1766;DHT22;880;52.452;8.656;2022-07-23T13:37:07;25.70;88.90
1766;DHT22;880;52.452;8.656;2022-07-23T13:39:35;25.70;89.60
1766;DHT22;880;52.452;8.656;2022-07-23T13:42:05;25.70;87.60
1766;DHT22;880;52.452;8.656;2022-07-23T13:44:52;25.40;87.20
1766;DHT22;880;52.452;8.656;2022-07-23T13:47:19;25.30;88.80
1766;DHT22;880;52.452;8.656;2022-07-23T13:49:46;25.40;87.70
1766;DHT22;880;52.452;8.656;2022-07-23T13:52:14;25.20;87.20
1766;DHT22;880;52.452;8.656;2022-07-23T13:54:42;25.10;88.20
1766;DHT22;880;52.452;8.656;2022-07-23T13:57:09;25.30;88.90
1766;DHT22;880;52.452;8.656;2022-07-23T13:59:38;25.30;87.00
1766;DHT22;880;52.452;8.656;2022-07-23T14:02:05;25.10;88.40
1766;DHT22;880;52.452;8.656;2022-07-23T14:04:47;25.20;89.70
1766;DHT22;880;52.452;8.656;2022-07-23T14:07:15;25.40;89.10
1766;DHT22;880;52.452;8.656;2022-07-23T14:09:43;25.50;87.60
1766;DHT22;880;52.452;8.656;2022-07-23T14:12:10;25.80;90.20
1766;DHT22;880;52.452;8.656;2022-07-23T14:14:37;25.80;86.30
1766;DHT22;880;52.452;8.656;2022-07-23T14:17:05;26.00;87.70
1766;DHT22;880;52.452;8.656;2022-07-23T14:19:32;26.20;87.50
1766;DHT22;880;52.452;8.656;2022-07-23T14:22:00;26.30;87.30
1766;DHT22;880;52.452;8.656;2022-07-23T14:24:27;26.40;87.40
1766;DHT22;880;52.452;8.656;2022-07-23T14:27:03;26.60;86.50
1766;DHT22;880;52.452;8.656;2022-07-23T14:29:31;26.80;86.50
1766;DHT22;880;52.452;8.656;2022-07-23T14:32:01;26.80;84.00
1766;DHT22;880;52.452;8.656;2022-07-23T14:34:29;26.80;84.50
1766;DHT22;880;52.452;8.656;2022-07-23T14:36:57;26.80;84.50
1766;DHT22;880;52.452;8.656;2022-07-23T14:39:24;26.90;86.00
1766;DHT22;880;52.452;8.656;2022-07-23T14:41:51;27.00;84.50
1766;DHT22;880;52.452;8.656;2022-07-23T14:44:18;27.10;83.50
1766;DHT22;880;52.452;8.656;2022-07-23T14:46:46;27.10;81.70
1766;DHT22;880;52.452;8.656;2022-07-23T14:49:13;26.80;82.90
1766;DHT22;880;52.452;8.656;2022-07-23T14:51:40;26.40;83.40
1766;DHT22;880;52.452;8.656;2022-07-23T14:54:08;26.10;84.60
1766;DHT22;880;52.452;8.656;2022-07-23T14:56:36;26.10;85.80
1766;DHT22;880;52.452;8.656;2022-07-23T14:59:04;26.30;87.20
1766;DHT22;880;52.452;8.656;2022-07-23T15:01:32;26.30;85.40
1766;DHT22;880;52.452;8.656;2022-07-23T15:04:00;26.60;85.80
1766;DHT22;880;52.452;8.656;2022-07-23T15:06:47;26.60;82.10
1766;DHT22;880;52.452;8.656;2022-07-23T15:09:15;26.10;82.90
1766;DHT22;880;52.452;8.656;2022-07-23T15:11:42;25.90;84.50
1766;DHT22;880;52.452;8.656;2022-07-23T15:14:10;25.80;85.80
1766;DHT22;880;52.452;8.656;2022-07-23T15:16:43;25.80;86.10
1766;DHT22;880;52.452;8.656;2022-07-23T15:19:10;25.60;85.80
1766;DHT22;880;52.452;8.656;2022-07-23T15:21:38;25.60;87.60
1766;DHT22;880;52.452;8.656;2022-07-23T15:24:05;25.70;88.10
1766;DHT22;880;52.452;8.656;2022-07-23T15:26:32;25.70;84.40
1766;DHT22;880;52.452;8.656;2022-07-23T15:29:01;25.50;84.90
1766;DHT22;880;52.452;8.656;2022-07-23T15:31:30;25.60;86.90
1766;DHT22;880;52.452;8.656;2022-07-23T15:33:57;25.80;85.10
1766;DHT22;880;52.452;8.656;2022-07-23T15:36:24;25.90;86.10
1766;DHT22;880;52.452;8.656;2022-07-23T15:38:51;26.00;84.70
1766;DHT22;880;52.452;8.656;2022-07-23T15:41:18;25.90;84.60
1766;DHT22;880;52.452;8.656;2022-07-23T15:43:45;25.60;85.20
1766;DHT22;880;52.452;8.656;2022-07-23T15:46:13;25.60;86.80
1766;DHT22;880;52.452;8.656;2022-07-23T15:48:46;25.70;87.30
1766;DHT22;880;52.452;8.656;2022-07-23T15:51:13;25.60;85.00
1766;DHT22;880;52.452;8.656;2022-07-23T15:53:43;25.50;85.50
1766;DHT22;880;52.452;8.656;2022-07-23T15:56:10;25.30;86.20
1766;DHT22;880;52.452;8.656;2022-07-23T15:58:43;25.20;85.50
1766;DHT22;880;52.452;8.656;2022-07-23T16:01:11;25.00;86.90
1766;DHT22;880;52.452;8.656;2022-07-23T16:03:39;25.10;89.10
1766;DHT22;880;52.452;8.656;2022-07-23T16:06:07;25.30;87.30
1766;DHT22;880;52.452;8.656;2022-07-23T16:08:44;25.40;86.30
1766;DHT22;880;52.452;8.656;2022-07-23T16:11:12;25.10;85.80
1766;DHT22;880;52.452;8.656;2022-07-23T16:13:40;24.90;87.80
1766;DHT22;880;52.452;8.656;2022-07-23T16:16:07;25.00;90.10
1766;DHT22;880;52.452;8.656;2022-07-23T16:18:35;25.10;89.60
1766;DHT22;880;52.452;8.656;2022-07-23T16:21:03;25.30;88.10
1766;DHT22;880;52.452;8.656;2022-07-23T16:23:37;25.40;86.80
1766;DHT22;880;52.452;8.656;2022-07-23T16:26:04;25.30;86.80
1766;DHT22;880;52.452;8.656;2022-07-23T16:28:31;25.40;86.00
1766;DHT22;880;52.452;8.656;2022-07-23T16:30:58;25.30;87.60
1766;DHT22;880;52.452;8.656;2022-07-23T16:33:26;25.40;86.10
1766;DHT22;880;52.452;8.656;2022-07-23T16:35:53;25.40;87.80
1766;DHT22;880;52.452;8.656;2022-07-23T16:38:20;25.30;85.20
1766;DHT22;880;52.452;8.656;2022-07-23T16:40:49;25.20;86.60
1766;DHT22;880;52.452;8.656;2022-07-23T16:43:16;25.10;86.70
1766;DHT22;880;52.452;8.656;2022-07-23T16:45:45;25.00;87.10
1766;DHT22;880;52.452;8.656;2022-07-23T16:48:13;24.90;86.80
1766;DHT22;880;52.452;8.656;2022-07-23T16:50:40;24.90;86.90
1766;DHT22;880;52.452;8.656;2022-07-23T16:53:07;24.90;88.20
1766;DHT22;880;52.452;8.656;2022-07-23T16:55:35;25.00;86.80
1766;DHT22;880;52.452;8.656;2022-07-23T16:58:02;25.10;88.70
1766;DHT22;880;52.452;8.656;2022-07-23T17:00:29;25.20;89.60
1766;DHT22;880;52.452;8.656;2022-07-23T17:02:56;25.00;86.90
1766;DHT22;880;52.452;8.656;2022-07-23T17:05:31;24.80;86.30
1766;DHT22;880;52.452;8.656;2022-07-23T17:07:58;24.80;88.90
1766;DHT22;880;52.452;8.656;2022-07-23T17:10:25;24.80;89.20
1766;DHT22;880;52.452;8.656;2022-07-23T17:12:52;24.90;89.90